Terminal Aerodrome Forecast
Issued by NWS

Home | Current Version | Previous Version | Text Only | Print | Product List | Glossary On
Versions: 1 2 3 4 5 6 7 8 9 10 11 12 13 14
407
FTUS45 KRIW 100531
TAFRKS
TAF
KRKS 100531Z 1006/1106 25013KT P6SM SCT025 BKN050
     FM101600 24020G30KT P6SM SCT024 OVC035
     FM110000 25016G30KT 2SM -SN BKN016=

USA.gov is the U.S. government's official web portal to all federal, state and local government web resources and services.